createdAt,value
2023-04-15T00:01:12.309Z,41.63
2023-04-15T00:03:40.284Z,37.30
2023-04-15T00:06:08.516Z,43.22
2023-04-15T00:08:35.878Z,40.55
2023-04-15T00:11:05.939Z,37.67
2023-04-15T00:13:34.871Z,42.05
2023-04-15T00:16:02.710Z,44.00
2023-04-15T00:18:31.633Z,48.35
2023-04-15T00:20:59.550Z,52.80
2023-04-15T00:23:27.985Z,45.95
2023-04-15T00:25:55.760Z,44.08
2023-04-15T00:28:23.408Z,49.90
2023-04-15T00:30:51.248Z,53.75
2023-04-15T00:33:18.850Z,52.38
2023-04-15T00:35:47.740Z,51.15
2023-04-15T00:38:15.325Z,62.85
2023-04-15T00:40:43.668Z,48.90
2023-04-15T00:43:12.399Z,51.00
2023-04-15T00:45:39.964Z,49.67
2023-04-15T00:48:09.493Z,51.55
2023-04-15T00:50:37.515Z,55.08
2023-04-15T00:53:05.155Z,52.22
2023-04-15T00:55:32.710Z,55.25
2023-04-15T00:58:00.410Z,54.85
2023-04-15T01:00:28.036Z,54.25
2023-04-15T01:02:55.886Z,52.95
2023-04-15T01:05:23.683Z,53.70
2023-04-15T01:07:51.323Z,58.78
2023-04-15T01:10:18.967Z,64.15
2023-04-15T01:12:46.934Z,49.50
2023-04-15T01:15:14.813Z,56.50
2023-04-15T01:17:42.908Z,59.60
2023-04-15T01:20:12.288Z,60.65
2023-04-15T01:22:40.809Z,68.47
2023-04-15T01:25:15.377Z,66.35
2023-04-15T01:27:43.393Z,62.22
2023-04-15T01:30:11.560Z,61.92
2023-04-15T01:32:39.282Z,64.25
2023-04-15T01:35:25.736Z,64.82
2023-04-15T01:37:54.704Z,62.63
2023-04-15T01:40:22.824Z,63.85
2023-04-15T01:42:51.880Z,67.55
2023-04-15T01:45:20.685Z,57.73
2023-04-15T01:47:52.829Z,57.30
2023-04-15T01:50:22.029Z,61.28
2023-04-15T01:52:51.097Z,56.28
2023-04-15T01:55:21.256Z,65.13
2023-04-15T01:57:50.052Z,60.50
2023-04-15T02:00:19.193Z,61.85
2023-04-15T02:02:48.119Z,62.33
2023-04-15T02:05:17.004Z,60.77
2023-04-15T02:07:50.397Z,57.63
2023-04-15T02:12:48.088Z,55.15
2023-04-15T02:15:17.410Z,45.25
2023-04-15T02:17:51.309Z,53.92
2023-04-15T02:20:21.454Z,50.88
2023-04-15T02:22:50.324Z,49.97
2023-04-15T02:25:20.297Z,53.17
2023-04-15T02:27:49.208Z,46.67
2023-04-15T02:32:48.517Z,50.13
2023-04-15T02:35:19.857Z,52.42
2023-04-15T02:37:48.736Z,46.97
2023-04-15T02:40:17.749Z,49.88
2023-04-15T02:42:47.867Z,55.08
2023-04-15T02:45:23.068Z,53.88
2023-04-15T02:47:52.755Z,55.92
2023-04-15T02:52:54.955Z,57.13
2023-04-15T02:55:23.967Z,60.35
2023-04-15T02:57:52.957Z,66.00
2023-04-15T03:00:21.956Z,61.90
2023-04-15T03:02:56.442Z,59.13
2023-04-15T03:05:26.196Z,54.13
2023-04-15T03:07:55.256Z,62.15
2023-04-15T03:10:24.097Z,63.03
2023-04-15T03:12:52.926Z,61.17
2023-04-15T03:15:23.769Z,66.88
2023-04-15T03:17:54.925Z,51.08
2023-04-15T03:20:24.087Z,59.33
2023-04-15T03:22:56.224Z,60.88
2023-04-15T03:25:27.131Z,63.75
2023-04-15T03:27:56.005Z,65.80
2023-04-15T03:30:24.855Z,58.45
2023-04-15T03:32:53.894Z,58.10
2023-04-15T03:35:22.913Z,62.55
2023-04-15T03:37:57.158Z,72.55
2023-04-15T03:40:26.349Z,68.80
2023-04-15T03:42:57.482Z,56.35
2023-04-15T03:45:26.363Z,71.05
2023-04-15T03:47:55.684Z,73.43
2023-04-15T03:50:24.730Z,69.82
2023-04-15T03:52:53.873Z,78.18
2023-04-15T03:55:22.793Z,92.47
2023-04-15T03:57:51.623Z,78.88
2023-04-15T04:00:20.695Z,101.10
2023-04-15T04:02:49.672Z,102.05
2023-04-15T04:05:18.840Z,95.53
2023-04-15T04:07:47.657Z,99.77
2023-04-15T04:10:16.494Z,102.80
2023-04-15T04:12:45.345Z,91.75
2023-04-15T04:15:14.310Z,92.35
2023-04-15T04:17:43.248Z,103.73
2023-04-15T04:20:12.451Z,74.97
2023-04-15T04:22:41.764Z,121.55
2023-04-15T04:25:11.206Z,72.53
2023-04-15T04:27:40.084Z,98.20
2023-04-15T04:30:09.168Z,91.97
2023-04-15T04:32:38.315Z,80.68
2023-04-15T04:35:07.488Z,74.15
2023-04-15T04:37:36.249Z,70.57
2023-04-15T04:40:05.643Z,71.45
2023-04-15T04:42:34.609Z,97.78
2023-04-15T04:45:03.562Z,84.63
2023-04-15T04:47:32.530Z,100.00
2023-04-15T04:50:01.814Z,69.47
2023-04-15T04:52:30.688Z,57.53
2023-04-15T04:55:02.586Z,57.25
2023-04-15T04:57:31.542Z,51.53
2023-04-15T05:00:00.663Z,79.83
2023-04-15T05:02:29.566Z,54.67
2023-04-15T05:04:58.593Z,79.17
2023-04-15T05:07:27.571Z,68.20
2023-04-15T05:09:56.721Z,136.63
2023-04-15T05:12:25.620Z,138.60
2023-04-15T05:14:54.403Z,113.80
2023-04-15T05:17:23.930Z,182.50
2023-04-15T05:19:53.829Z,157.57
2023-04-15T05:22:23.024Z,127.20
2023-04-15T05:24:51.800Z,129.77
2023-04-15T05:27:20.739Z,134.32
2023-04-15T05:29:49.652Z,98.93
2023-04-15T05:32:18.822Z,41.60
2023-04-15T05:34:47.851Z,36.13
2023-04-15T05:37:16.788Z,85.68
2023-04-15T05:39:45.572Z,69.63
2023-04-15T05:42:14.499Z,50.22
2023-04-15T05:44:43.340Z,55.17
2023-04-15T05:47:12.572Z,64.47
2023-04-15T05:49:41.857Z,53.03
2023-04-15T05:52:11.201Z,62.47
2023-04-15T05:54:40.174Z,54.75
2023-04-15T05:57:08.970Z,35.03
2023-04-15T05:59:38.892Z,46.65
2023-04-15T06:04:37.085Z,28.00
2023-04-15T06:07:06.247Z,41.63
2023-04-15T06:09:35.348Z,39.58
2023-04-15T06:12:04.394Z,32.15
2023-04-15T06:14:33.478Z,38.15
2023-04-15T06:17:02.413Z,29.30
2023-04-15T06:19:31.928Z,82.53
2023-04-15T06:22:01.787Z,64.60
2023-04-15T06:24:31.586Z,34.75
2023-04-15T06:27:00.361Z,35.55
2023-04-15T06:29:29.429Z,38.33
2023-04-15T06:31:58.521Z,43.88
2023-04-15T06:36:57.551Z,42.00
2023-04-15T06:39:27.029Z,46.80
2023-04-15T06:41:56.502Z,41.83
2023-04-15T06:44:25.888Z,47.75
2023-04-15T06:46:57.678Z,42.58
2023-04-15T06:49:26.793Z,40.57
2023-04-15T06:51:55.901Z,43.30
2023-04-15T06:54:26.601Z,39.55
2023-04-15T06:56:55.483Z,50.83
2023-04-15T06:59:24.328Z,54.22
2023-04-15T07:01:53.651Z,50.22
2023-04-15T07:04:22.563Z,42.13
2023-04-15T07:06:52.110Z,37.38
2023-04-15T07:09:22.654Z,44.40
2023-04-15T07:11:51.593Z,48.63
2023-04-15T07:14:22.047Z,40.20
2023-04-15T07:16:51.017Z,42.20
2023-04-15T07:19:19.840Z,38.50
2023-04-15T07:21:48.751Z,36.17
2023-04-15T07:24:19.017Z,39.50
2023-04-15T07:26:48.100Z,37.45
2023-04-15T07:29:17.215Z,30.27
2023-04-15T07:31:46.406Z,33.80
2023-04-15T07:34:15.201Z,31.10
2023-04-15T07:36:44.247Z,27.02
2023-04-15T07:39:13.230Z,26.13
2023-04-15T07:41:42.060Z,23.25
2023-04-15T07:44:11.315Z,23.33
2023-04-15T07:46:40.461Z,23.40
2023-04-15T07:49:09.547Z,20.95
2023-04-15T07:51:38.468Z,22.83
2023-04-15T07:54:07.435Z,22.35
2023-04-15T07:56:36.341Z,19.58
2023-04-15T07:59:06.202Z,21.10
2023-04-15T08:04:03.949Z,16.58
2023-04-15T08:06:33.301Z,21.65
2023-04-15T08:09:02.531Z,20.52
2023-04-15T08:11:31.709Z,21.67
2023-04-15T08:14:00.635Z,22.83
2023-04-15T08:16:29.747Z,18.10
2023-04-15T08:18:58.670Z,19.27
2023-04-15T08:21:27.813Z,15.27
2023-04-15T08:24:00.222Z,16.63
2023-04-15T08:26:29.480Z,13.43
2023-04-15T08:28:58.630Z,12.93
2023-04-15T08:31:30.817Z,13.52
2023-04-15T08:34:00.403Z,14.20
2023-04-15T08:36:29.649Z,13.80
2023-04-15T08:38:58.854Z,10.18
2023-04-15T08:41:37.190Z,11.63
2023-04-15T08:44:08.454Z,10.45
2023-04-15T08:46:37.838Z,11.77
2023-04-15T08:49:10.880Z,11.82
2023-04-15T08:51:41.004Z,13.57
2023-04-15T08:54:10.716Z,11.07
2023-04-15T08:56:39.656Z,11.45
2023-04-15T08:59:09.928Z,10.57
2023-04-15T09:01:38.982Z,12.10
2023-04-15T09:04:08.271Z,10.10
2023-04-15T09:06:37.289Z,11.40
2023-04-15T09:09:06.418Z,8.63
2023-04-15T09:11:35.697Z,7.80
2023-04-15T09:14:04.589Z,9.23
2023-04-15T09:16:56.938Z,6.45
2023-04-15T09:19:27.995Z,6.80
2023-04-15T09:21:59.445Z,6.90
2023-04-15T09:24:38.470Z,8.65
2023-04-15T09:27:08.736Z,8.47
2023-04-15T09:29:37.862Z,5.97
2023-04-15T09:32:14.056Z,8.82
2023-04-15T09:34:43.712Z,6.03
2023-04-15T09:37:28.548Z,5.30
2023-04-15T09:39:57.707Z,6.43
2023-04-15T09:42:28.348Z,7.38
2023-04-15T09:45:08.993Z,5.65
2023-04-15T09:47:38.105Z,5.68
2023-04-15T09:50:07.652Z,6.37
2023-04-15T09:52:43.359Z,5.68
2023-04-15T09:55:13.913Z,5.75
2023-04-15T09:57:44.428Z,6.82
2023-04-15T10:00:14.154Z,6.93
2023-04-15T10:02:43.516Z,5.85
2023-04-15T10:05:15.344Z,7.82
2023-04-15T10:07:45.817Z,4.65
2023-04-15T10:10:15.278Z,5.78
2023-04-15T10:12:45.218Z,4.18
2023-04-15T10:15:17.471Z,5.68
2023-04-15T10:17:50.490Z,3.13
2023-04-15T10:20:21.002Z,3.83
2023-04-15T10:22:51.478Z,4.93
2023-04-15T10:25:21.203Z,3.58
2023-04-15T10:27:52.873Z,4.18
2023-04-15T10:30:24.948Z,7.35
2023-04-15T10:32:54.396Z,6.22
2023-04-15T10:35:23.835Z,4.18
2023-04-15T10:37:52.721Z,4.55
2023-04-15T10:40:28.088Z,4.03
2023-04-15T10:42:58.006Z,4.13
2023-04-15T10:45:35.584Z,3.17
2023-04-15T10:48:10.431Z,4.88
2023-04-15T10:50:55.806Z,5.22
2023-04-15T10:53:29.532Z,3.90
2023-04-15T10:55:58.755Z,3.58
2023-04-15T10:58:44.438Z,6.03
2023-04-15T11:01:13.631Z,8.77
2023-04-15T11:03:43.810Z,9.90
2023-04-15T11:06:12.970Z,7.93
2023-04-15T11:09:03.394Z,7.22
2023-04-15T11:12:09.796Z,6.97
2023-04-15T11:14:43.472Z,9.23
2023-04-15T11:17:12.436Z,10.85
2023-04-15T11:19:41.522Z,7.50
2023-04-15T11:22:11.043Z,11.57
2023-04-15T11:24:51.960Z,8.23
2023-04-15T11:27:23.376Z,6.18
2023-04-15T11:29:53.325Z,7.00
2023-04-15T11:32:22.187Z,7.50
2023-04-15T11:34:52.267Z,5.35
2023-04-15T11:39:56.609Z,6.45
2023-04-15T11:42:25.960Z,4.78
2023-04-15T11:45:15.491Z,6.05
2023-04-15T11:47:44.551Z,5.60
2023-04-15T11:50:18.176Z,7.03
2023-04-15T11:53:02.412Z,5.60
2023-04-15T11:55:30.742Z,6.55
2023-04-15T11:58:17.886Z,5.00
2023-04-15T12:00:54.206Z,6.07
2023-04-15T12:03:31.257Z,3.40
2023-04-15T12:06:19.467Z,5.43
2023-04-15T12:09:00.906Z,5.28
2023-04-15T12:11:32.586Z,5.65
2023-04-15T12:14:12.899Z,3.45
2023-04-15T12:16:48.748Z,3.00
2023-04-15T12:19:22.710Z,4.25
2023-04-15T12:21:50.950Z,3.90
2023-04-15T12:24:22.859Z,3.83
2023-04-15T12:26:57.323Z,4.32
2023-04-15T12:29:29.728Z,4.30
2023-04-15T12:32:08.815Z,4.03
2023-04-15T12:34:39.160Z,3.67
2023-04-15T12:37:09.732Z,3.35
2023-04-15T12:42:06.790Z,4.03
2023-04-15T12:44:35.789Z,5.13
2023-04-15T12:47:03.686Z,4.00
2023-04-15T12:49:32.789Z,3.28
2023-04-15T12:52:02.960Z,3.30
2023-04-15T12:54:31.730Z,2.83
2023-04-15T12:57:00.020Z,5.90
2023-04-15T12:59:28.382Z,3.50
2023-04-15T13:01:58.685Z,4.03
2023-04-15T13:04:30.668Z,4.93
2023-04-15T13:06:58.756Z,3.45
2023-04-15T13:09:28.758Z,3.15
2023-04-15T13:11:56.551Z,2.97
2023-04-15T13:14:24.071Z,3.63
2023-04-15T13:16:51.653Z,3.15
2023-04-15T13:19:21.921Z,4.43
2023-04-15T13:21:49.474Z,2.92
2023-04-15T13:24:17.595Z,3.60
2023-04-15T13:26:45.229Z,2.55
2023-04-15T13:29:14.171Z,2.90
2023-04-15T13:31:41.745Z,6.60
2023-04-15T13:34:09.380Z,4.75
2023-04-15T13:36:37.033Z,4.10
2023-04-15T13:39:05.625Z,2.63
2023-04-15T13:41:33.232Z,2.65
2023-04-15T13:44:00.743Z,3.35
2023-04-15T13:46:28.312Z,4.13
2023-04-15T13:48:55.970Z,16.13
2023-04-15T13:51:27.060Z,4.13
2023-04-15T13:53:54.662Z,2.97
2023-04-15T13:56:22.287Z,3.03
2023-04-15T13:58:50.450Z,2.35
2023-04-15T14:01:18.018Z,3.22
2023-04-15T14:03:46.158Z,5.45
2023-04-15T14:06:13.920Z,2.90
2023-04-15T14:08:41.445Z,6.57
2023-04-15T14:11:09.118Z,6.15
2023-04-15T14:13:36.941Z,2.85
2023-04-15T14:16:05.302Z,6.85
2023-04-15T14:18:33.534Z,2.22
2023-04-15T14:21:01.097Z,5.32
2023-04-15T14:23:28.870Z,4.25
2023-04-15T14:25:59.075Z,2.42
2023-04-15T14:28:26.638Z,3.28
2023-04-15T14:30:54.127Z,3.50
2023-04-15T14:33:21.683Z,3.08
2023-04-15T14:35:50.346Z,3.88
2023-04-15T14:38:18.029Z,3.05
2023-04-15T14:40:45.613Z,4.75
2023-04-15T14:43:13.174Z,3.38
2023-04-15T14:45:43.693Z,4.25
2023-04-15T14:48:12.974Z,4.13
2023-04-15T14:50:41.063Z,2.70
2023-04-15T14:53:09.096Z,7.35
2023-04-15T14:55:36.685Z,1.90
2023-04-15T14:58:04.522Z,14.40
2023-04-15T15:00:32.086Z,4.03
2023-04-15T15:03:00.519Z,2.10
2023-04-15T15:05:28.293Z,4.15
2023-04-15T15:07:55.945Z,9.10
2023-04-15T15:10:35.342Z,3.78
2023-04-15T15:13:11.735Z,2.63
2023-04-15T15:15:39.870Z,3.22
2023-04-15T15:18:07.665Z,2.58
2023-04-15T15:20:36.064Z,3.42
2023-04-15T15:23:03.599Z,2.75
2023-04-15T15:25:31.253Z,3.45
2023-04-15T15:27:58.933Z,3.83
2023-04-15T15:30:26.570Z,2.95
2023-04-15T15:32:54.379Z,5.60
2023-04-15T15:35:23.034Z,4.90
2023-04-15T15:37:50.805Z,5.20
2023-04-15T15:40:19.391Z,11.90
2023-04-15T15:42:49.895Z,3.08
2023-04-15T15:45:17.890Z,2.45
2023-04-15T15:47:45.465Z,2.78
2023-04-15T15:50:13.856Z,4.22
2023-04-15T15:52:41.475Z,2.22
2023-04-15T15:55:09.180Z,3.90
2023-04-15T15:57:36.992Z,3.38
2023-04-15T16:00:11.824Z,5.05
2023-04-15T16:05:12.778Z,1.48
2023-04-15T16:07:40.655Z,2.28
2023-04-15T16:10:08.910Z,3.53
2023-04-15T16:12:36.639Z,4.53
2023-04-15T16:15:04.763Z,3.15
2023-04-15T16:17:32.941Z,3.00
2023-04-15T16:20:04.168Z,1.88
2023-04-15T16:22:33.193Z,3.22
2023-04-15T16:25:01.877Z,2.67
2023-04-15T16:27:29.547Z,3.15
2023-04-15T16:29:57.158Z,2.72
2023-04-15T16:32:24.914Z,4.38
2023-04-15T16:34:53.055Z,2.72
2023-04-15T16:37:21.577Z,4.22
2023-04-15T16:39:49.103Z,4.25
2023-04-15T16:42:17.921Z,3.08
2023-04-15T16:44:45.580Z,3.60
2023-04-15T16:47:13.188Z,3.17
2023-04-15T16:49:40.809Z,2.45
2023-04-15T16:52:08.505Z,5.15
2023-04-15T16:54:41.147Z,7.43
2023-04-15T16:57:09.031Z,4.53
2023-04-15T16:59:37.866Z,1.98
2023-04-15T17:02:06.161Z,3.60
2023-04-15T17:04:36.808Z,2.72
2023-04-15T17:07:08.847Z,2.20
2023-04-15T17:09:38.725Z,4.53
2023-04-15T17:12:07.471Z,4.05
2023-04-15T17:14:35.501Z,6.38
2023-04-15T17:17:03.364Z,4.80
2023-04-15T17:19:32.302Z,4.30
2023-04-15T17:22:07.477Z,3.65
2023-04-15T17:24:36.239Z,5.53
2023-04-15T17:27:07.925Z,5.50
2023-04-15T17:29:37.127Z,5.40
2023-04-15T17:32:07.768Z,3.30
2023-04-15T17:34:55.199Z,3.85
2023-04-15T17:37:42.715Z,6.60
2023-04-15T17:40:30.251Z,4.03
2023-04-15T17:43:18.429Z,4.45
2023-04-15T17:46:09.432Z,4.35
2023-04-15T17:48:56.924Z,4.00
2023-04-15T17:51:46.623Z,3.13
2023-04-15T17:54:34.626Z,4.30
2023-04-15T17:57:22.200Z,7.13
2023-04-15T18:00:10.694Z,5.40
2023-04-15T18:03:01.816Z,4.03
2023-04-15T18:05:49.614Z,8.60
2023-04-15T18:08:37.095Z,6.22
2023-04-15T18:11:24.874Z,5.18
2023-04-15T18:14:13.947Z,4.25
2023-04-15T18:17:03.746Z,10.73
2023-04-15T18:19:52.462Z,5.72
2023-04-15T18:22:20.092Z,6.60
2023-04-15T18:24:49.832Z,6.10
2023-04-15T18:27:18.591Z,11.43
2023-04-15T18:29:46.603Z,7.53
2023-04-15T18:32:14.445Z,6.93
2023-04-15T18:34:42.927Z,7.75
2023-04-15T18:37:10.771Z,5.40
2023-04-15T18:39:38.326Z,5.13
2023-04-15T18:42:06.278Z,4.53
2023-04-15T18:44:34.179Z,10.05
2023-04-15T18:47:01.851Z,7.65
2023-04-15T18:49:33.186Z,5.80
2023-04-15T18:52:00.743Z,11.73
2023-04-15T18:54:28.568Z,6.65
2023-04-15T18:56:56.799Z,9.73
2023-04-15T18:59:29.783Z,5.82
2023-04-15T19:02:02.186Z,6.95
2023-04-15T19:04:29.991Z,6.05
2023-04-15T19:06:59.212Z,7.57
2023-04-15T19:09:28.839Z,8.55
2023-04-15T19:11:59.608Z,6.93
2023-04-15T19:14:27.671Z,6.75
2023-04-15T19:16:55.419Z,7.07
2023-04-15T19:19:23.195Z,8.43
2023-04-15T19:21:50.981Z,8.95
2023-04-15T19:24:19.218Z,10.77
2023-04-15T19:26:51.392Z,12.88
2023-04-15T19:29:19.156Z,16.13
2023-04-15T19:31:46.822Z,14.77
2023-04-15T19:34:14.781Z,13.02
2023-04-15T19:36:42.428Z,14.73
2023-04-15T19:39:10.982Z,14.38
2023-04-15T19:41:39.432Z,13.60
2023-04-15T19:44:08.141Z,7.85
2023-04-15T19:46:36.717Z,11.32
2023-04-15T19:49:04.863Z,11.73
2023-04-15T19:51:32.873Z,13.48
2023-04-15T19:54:00.649Z,15.20
2023-04-15T19:56:29.311Z,13.13
2023-04-15T19:58:57.027Z,13.88
2023-04-15T20:01:24.923Z,10.57
2023-04-15T20:03:54.606Z,10.57
2023-04-15T20:06:22.286Z,18.73
2023-04-15T20:08:50.083Z,14.68
2023-04-15T20:11:17.616Z,13.30
2023-04-15T20:13:45.453Z,12.63
2023-04-15T20:16:13.363Z,17.13
2023-04-15T20:18:41.532Z,17.23
2023-04-15T20:21:09.090Z,16.27
2023-04-15T20:23:38.266Z,21.55
2023-04-15T20:26:06.745Z,25.80
2023-04-15T20:28:34.479Z,20.88
2023-04-15T20:31:02.381Z,20.25
2023-04-15T20:33:30.780Z,17.70
2023-04-15T20:35:58.802Z,16.98
2023-04-15T20:38:28.954Z,19.05
2023-04-15T20:40:57.863Z,14.23
2023-04-15T20:43:26.146Z,15.32
2023-04-15T20:45:56.573Z,13.70
2023-04-15T20:48:24.510Z,17.38
2023-04-15T20:50:52.256Z,12.90
2023-04-15T20:53:19.870Z,20.25
2023-04-15T20:55:47.654Z,15.15
2023-04-15T20:58:15.314Z,16.35
2023-04-15T21:00:42.876Z,17.17
2023-04-15T21:03:12.504Z,18.00
2023-04-15T21:05:40.483Z,12.70
2023-04-15T21:08:08.040Z,13.85
2023-04-15T21:10:35.841Z,13.15
2023-04-15T21:13:03.653Z,11.60
2023-04-15T21:15:31.255Z,13.65
2023-04-15T21:17:58.862Z,15.27
2023-04-15T21:20:27.127Z,11.52
2023-04-15T21:22:54.730Z,14.60
2023-04-15T21:25:22.312Z,14.88
2023-04-15T21:27:49.844Z,15.68
2023-04-15T21:30:17.447Z,24.40
2023-04-15T21:32:44.989Z,24.73
2023-04-15T21:35:13.434Z,23.67
2023-04-15T21:37:41.031Z,21.27
2023-04-15T21:40:09.265Z,21.35
2023-04-15T21:42:36.901Z,22.75
2023-04-15T21:45:04.705Z,19.50
2023-04-15T21:47:32.301Z,17.33
2023-04-15T21:50:19.716Z,15.77
2023-04-15T21:52:47.400Z,14.05
2023-04-15T21:55:15.167Z,13.35
2023-04-15T21:57:43.013Z,15.23
2023-04-15T22:00:12.038Z,13.52
2023-04-15T22:02:39.908Z,12.10
2023-04-15T22:05:08.282Z,13.70
2023-04-15T22:07:36.439Z,14.63
2023-04-15T22:10:04.225Z,14.02
2023-04-15T22:12:32.499Z,12.77
2023-04-15T22:15:03.394Z,16.25
2023-04-15T22:17:32.319Z,12.15
2023-04-15T22:20:03.662Z,12.50
2023-04-15T22:22:43.764Z,13.13
2023-04-15T22:25:12.535Z,11.25
2023-04-15T22:27:40.254Z,12.43
2023-04-15T22:30:08.577Z,15.18
2023-04-15T22:32:36.343Z,13.70
2023-04-15T22:35:06.408Z,14.20
2023-04-15T22:40:02.173Z,20.80
2023-04-15T22:42:29.902Z,20.13
2023-04-15T22:45:00.014Z,17.13
2023-04-15T22:47:27.828Z,16.30
2023-04-15T22:49:55.345Z,14.75
2023-04-15T22:52:29.990Z,16.48
2023-04-15T22:54:59.296Z,18.50
2023-04-15T22:57:28.493Z,18.23
2023-04-15T22:59:56.126Z,16.23
2023-04-15T23:02:24.286Z,16.67
2023-04-15T23:04:52.295Z,18.02
2023-04-15T23:07:19.934Z,21.23
2023-04-15T23:09:47.478Z,14.93
2023-04-15T23:12:14.987Z,17.20
2023-04-15T23:14:42.496Z,17.73
2023-04-15T23:17:09.969Z,17.70
2023-04-15T23:19:37.609Z,17.92
2023-04-15T23:22:06.981Z,16.20
2023-04-15T23:24:34.570Z,13.88
2023-04-15T23:27:02.150Z,16.13
2023-04-15T23:29:29.726Z,15.80
2023-04-15T23:31:57.819Z,13.98
2023-04-15T23:34:25.530Z,15.75
2023-04-15T23:36:53.020Z,19.27
2023-04-15T23:39:20.765Z,16.30
2023-04-15T23:41:48.316Z,18.98
2023-04-15T23:44:15.931Z,22.92
2023-04-15T23:46:43.494Z,17.40
2023-04-15T23:49:11.172Z,20.15
2023-04-15T23:51:38.821Z,18.02
2023-04-15T23:54:06.454Z,23.30
2023-04-15T23:56:33.915Z,18.92
2023-04-15T23:59:01.493Z,16.35
